createdAt,value
2023-04-25T00:00:27.262Z,99923.69
2023-04-25T00:02:58.234Z,99920.00
2023-04-25T00:05:27.806Z,99923.41
2023-04-25T00:07:55.920Z,99918.31
2023-04-25T00:10:23.981Z,99824.06
2023-04-25T00:12:52.705Z,99911.88
2023-04-25T00:15:20.738Z,99906.63
2023-04-25T00:17:49.134Z,99911.97
2023-04-25T00:20:18.559Z,99903.25
2023-04-25T00:22:46.476Z,99905.81
2023-04-25T00:25:14.414Z,99904.22
2023-04-25T00:27:42.869Z,99915.66
2023-04-25T00:30:12.079Z,99907.75
2023-04-25T00:32:40.123Z,99908.59
2023-04-25T00:35:08.546Z,99907.63
2023-04-25T00:37:38.124Z,99905.81
2023-04-25T00:40:08.990Z,99910.31
2023-04-25T00:42:37.972Z,99905.06
2023-04-25T00:45:08.643Z,99895.22
2023-04-25T00:47:38.412Z,99890.00
2023-04-25T00:50:07.781Z,99896.94
2023-04-25T00:52:37.851Z,99904.94
2023-04-25T00:55:06.300Z,99870.38
2023-04-25T00:57:34.417Z,99889.88
2023-04-25T01:00:02.934Z,99879.56
2023-04-25T01:02:31.636Z,99897.03
2023-04-25T01:04:59.906Z,99889.88
2023-04-25T01:07:28.246Z,99889.75
2023-04-25T01:09:57.888Z,99884.50
2023-04-25T01:12:26.276Z,99887.19
2023-04-25T01:14:54.425Z,99872.25
2023-04-25T01:17:22.500Z,99875.63
2023-04-25T01:19:52.454Z,99873.97
2023-04-25T01:22:21.979Z,99865.34
2023-04-25T01:24:50.575Z,99846.75
2023-04-25T01:27:19.187Z,99838.44
2023-04-25T01:29:47.895Z,99826.06
2023-04-25T01:32:16.736Z,99789.63
2023-04-25T01:34:44.842Z,99831.53
2023-04-25T01:37:12.953Z,99828.84
2023-04-25T01:39:42.934Z,99826.06
2023-04-25T01:42:11.196Z,99812.00
2023-04-25T01:44:39.259Z,99803.09
2023-04-25T01:47:07.206Z,99804.94
2023-04-25T01:49:35.396Z,99805.91
2023-04-25T01:52:03.612Z,99805.91
2023-04-25T01:54:31.635Z,99804.75
2023-04-25T01:57:02.738Z,99808.88
2023-04-25T01:59:31.504Z,99806.19
2023-04-25T02:02:18.157Z,99812.50
2023-04-25T02:04:46.448Z,99816.16
2023-04-25T02:07:15.309Z,99818.97
2023-04-25T02:09:54.430Z,99824.31
2023-04-25T02:12:27.345Z,99816.41
2023-04-25T02:15:14.302Z,99821.75
2023-04-25T02:17:46.246Z,99803.19
2023-04-25T02:20:14.732Z,99801.47
2023-04-25T02:22:42.989Z,99793.59
2023-04-25T02:25:12.550Z,99781.06
2023-04-25T02:27:42.005Z,99790.91
2023-04-25T02:30:10.777Z,99782.03
2023-04-25T02:32:38.923Z,99782.03
2023-04-25T02:35:07.696Z,99788.41
2023-04-25T02:37:36.900Z,99748.75
2023-04-25T02:40:05.989Z,99762.63
2023-04-25T02:42:34.671Z,99749.41
2023-04-25T02:45:04.498Z,99749.41
2023-04-25T02:47:32.760Z,99755.84
2023-04-25T02:50:00.899Z,99756.69
2023-04-25T02:52:29.053Z,99762.88
2023-04-25T02:55:04.938Z,99750.38
2023-04-25T02:57:33.871Z,99740.63
2023-04-25T03:00:05.101Z,99727.25
2023-04-25T03:02:33.242Z,99717.41
2023-04-25T03:05:01.529Z,99701.53
2023-04-25T03:07:30.328Z,99715.88
2023-04-25T03:09:58.513Z,99709.09
2023-04-25T03:12:27.080Z,99710.50
2023-04-25T03:14:55.291Z,99709.66
2023-04-25T03:17:24.660Z,99695.47
2023-04-25T03:19:52.867Z,99694.63
2023-04-25T03:22:21.047Z,99697.28
2023-04-25T03:24:49.237Z,99698.25
2023-04-25T03:27:17.512Z,99634.50
2023-04-25T03:29:45.554Z,99679.53
2023-04-25T03:32:13.820Z,99682.38
2023-04-25T03:34:43.415Z,99691.22
2023-04-25T03:37:11.531Z,99698.41
2023-04-25T03:39:40.278Z,99701.91
2023-04-25T03:42:08.830Z,99698.41
2023-04-25T03:44:36.996Z,99700.94
2023-04-25T03:47:05.499Z,99701.09
2023-04-25T03:49:34.625Z,99686.00
2023-04-25T03:52:05.750Z,99701.63
2023-04-25T03:54:40.370Z,99685.75
2023-04-25T03:57:20.412Z,99688.16
2023-04-25T03:59:48.699Z,99681.00
2023-04-25T04:02:17.675Z,99676.47
2023-04-25T04:04:46.608Z,99676.34
2023-04-25T04:07:16.761Z,99666.50
2023-04-25T04:09:51.092Z,99636.75
2023-04-25T04:12:27.643Z,99646.06
2023-04-25T04:14:55.803Z,99634.41
2023-04-25T04:17:23.832Z,99635.66
2023-04-25T04:19:53.226Z,99640.16
2023-04-25T04:22:24.028Z,99647.78
2023-04-25T04:24:55.318Z,99647.78
2023-04-25T04:27:41.575Z,99638.91
2023-04-25T04:30:24.980Z,99638.91
2023-04-25T04:32:59.909Z,99635.38
2023-04-25T04:35:28.091Z,99643.41
2023-04-25T04:37:57.494Z,99653.13
2023-04-25T04:40:28.618Z,99654.81
2023-04-25T04:43:06.804Z,99657.47
2023-04-25T04:45:47.665Z,99655.81
2023-04-25T04:48:35.115Z,99650.47
2023-04-25T04:51:22.303Z,99645.94
2023-04-25T04:53:59.407Z,99642.00
2023-04-25T04:56:53.400Z,99661.97
2023-04-25T04:59:27.717Z,99663.81
2023-04-25T05:02:14.515Z,99663.69
2023-04-25T05:04:53.669Z,99661.84
2023-04-25T05:07:27.615Z,99651.16
2023-04-25T05:10:08.714Z,99632.13
2023-04-25T05:13:03.883Z,99646.78
2023-04-25T05:15:46.524Z,99637.91
2023-04-25T05:18:37.396Z,99638.06
2023-04-25T05:21:32.431Z,99632.72
2023-04-25T05:24:20.780Z,99630.31
2023-04-25T05:27:06.404Z,99607.34
2023-04-25T05:30:07.136Z,99623.13
2023-04-25T05:32:51.457Z,99620.59
2023-04-25T05:35:20.182Z,99620.59
2023-04-25T05:37:50.160Z,99617.94
2023-04-25T05:40:18.456Z,99624.09
2023-04-25T05:42:47.831Z,99625.66
2023-04-25T05:45:21.787Z,99609.91
2023-04-25T05:48:28.313Z,99618.63
2023-04-25T05:51:19.927Z,99619.59
2023-04-25T05:54:08.292Z,99621.31
2023-04-25T05:56:36.738Z,99615.09
2023-04-25T05:59:06.109Z,99619.50
2023-04-25T06:01:34.164Z,99625.53
2023-04-25T06:04:02.889Z,99617.63
2023-04-25T06:06:31.359Z,99623.84
2023-04-25T06:09:01.446Z,99628.22
2023-04-25T06:11:29.411Z,99629.06
2023-04-25T06:13:57.484Z,99615.69
2023-04-25T06:16:27.687Z,99612.88
2023-04-25T06:18:55.925Z,99616.50
2023-04-25T06:21:23.953Z,99609.22
2023-04-25T06:23:53.434Z,99606.56
2023-04-25T06:26:24.966Z,99609.22
2023-04-25T06:28:53.834Z,99609.22
2023-04-25T06:31:21.838Z,99605.56
2023-04-25T06:33:55.584Z,99601.91
2023-04-25T06:36:26.884Z,99612.59
2023-04-25T06:38:58.145Z,99608.09
2023-04-25T06:41:26.202Z,99599.09
2023-04-25T06:43:56.399Z,99597.41
2023-04-25T06:46:29.431Z,99592.88
2023-04-25T06:49:01.324Z,99620.75
2023-04-25T06:51:30.992Z,99623.16
2023-04-25T06:53:59.894Z,99608.66
2023-04-25T06:56:33.522Z,99626.69
2023-04-25T06:59:09.346Z,99624.72
2023-04-25T07:01:39.718Z,99624.44
2023-04-25T07:04:14.185Z,99618.13
2023-04-25T07:06:49.339Z,99627.69
2023-04-25T07:09:20.439Z,99616.72
2023-04-25T07:11:50.799Z,99623.31
2023-04-25T07:14:19.036Z,99624.91
2023-04-25T07:16:47.705Z,99625.38
2023-04-25T07:19:17.173Z,99621.28
2023-04-25T07:21:45.340Z,99617.63
2023-04-25T07:24:13.937Z,99624.69
2023-04-25T07:26:46.563Z,99623.13
2023-04-25T07:29:38.382Z,99652.19
2023-04-25T07:32:06.797Z,99653.72
2023-04-25T07:34:38.267Z,99652.16
2023-04-25T07:37:06.415Z,99649.22
2023-04-25T07:39:42.974Z,99647.94
2023-04-25T07:42:11.311Z,99642.31
2023-04-25T07:44:43.353Z,99643.69
2023-04-25T07:47:14.092Z,99640.06
2023-04-25T07:49:44.277Z,99644.84
2023-04-25T07:52:12.331Z,99642.88
2023-04-25T07:54:44.421Z,99638.09
2023-04-25T07:57:19.471Z,99639.63
2023-04-25T07:59:48.974Z,99642.03
2023-04-25T08:02:17.534Z,99603.84
2023-04-25T08:04:48.011Z,99633.00
2023-04-25T08:07:19.040Z,99642.44
2023-04-25T08:09:52.060Z,99637.63
2023-04-25T08:12:26.327Z,99641.88
2023-04-25T08:14:54.967Z,99635.69
2023-04-25T08:17:25.604Z,99639.47
2023-04-25T08:19:55.143Z,99631.00
2023-04-25T08:22:28.152Z,99644.28
2023-04-25T08:25:12.690Z,99643.41
2023-04-25T08:27:41.971Z,99649.63
2023-04-25T08:30:11.370Z,99653.28
2023-04-25T08:32:41.234Z,99650.47
2023-04-25T08:35:45.132Z,99658.53
2023-04-25T08:38:13.633Z,99658.53
2023-04-25T08:40:42.265Z,99662.88
2023-04-25T08:43:16.147Z,99666.25
2023-04-25T08:45:44.516Z,99666.00
2023-04-25T08:48:19.294Z,99671.34
2023-04-25T08:50:53.036Z,99676.16
2023-04-25T08:53:28.303Z,99680.53
2023-04-25T08:55:59.476Z,99681.22
2023-04-25T08:58:27.904Z,99680.94
2023-04-25T09:00:56.102Z,99673.59
2023-04-25T09:03:28.099Z,99676.00
2023-04-25T09:05:58.873Z,99678.41
2023-04-25T09:08:27.073Z,99669.50
2023-04-25T09:10:55.124Z,99680.66
2023-04-25T09:13:28.698Z,99683.88
2023-04-25T09:16:15.688Z,99680.06
2023-04-25T09:19:04.158Z,99686.81
2023-04-25T09:21:37.237Z,99685.69
2023-04-25T09:24:06.759Z,99686.38
2023-04-25T09:26:34.873Z,99670.06
2023-04-25T09:29:08.278Z,99689.34
2023-04-25T09:31:39.047Z,99695.41
2023-04-25T09:34:12.938Z,99684.00
2023-04-25T09:36:47.433Z,99692.16
2023-04-25T09:39:20.537Z,99702.72
2023-04-25T09:41:56.119Z,99706.78
2023-04-25T09:44:25.916Z,99704.53
2023-04-25T09:46:55.512Z,99703.53
2023-04-25T09:49:28.105Z,99671.00
2023-04-25T09:52:05.911Z,99703.94
2023-04-25T09:54:46.707Z,99707.31
2023-04-25T09:57:20.165Z,99712.41
2023-04-25T09:59:50.820Z,99714.81
2023-04-25T10:02:21.274Z,99723.44
2023-04-25T10:04:53.818Z,99714.25
2023-04-25T10:07:39.313Z,99722.00
2023-04-25T10:10:15.298Z,99720.00
2023-04-25T10:12:45.304Z,99722.41
2023-04-25T10:15:14.522Z,99724.94
2023-04-25T10:17:42.617Z,99723.03
2023-04-25T10:20:12.488Z,99721.31
2023-04-25T10:22:44.341Z,99727.53
2023-04-25T10:25:13.282Z,99727.53
2023-04-25T10:27:41.601Z,99734.91
2023-04-25T10:30:13.602Z,99735.72
2023-04-25T10:32:41.730Z,99740.28
2023-04-25T10:35:14.681Z,99737.59
2023-04-25T10:38:04.752Z,99738.41
2023-04-25T10:40:33.185Z,99741.38
2023-04-25T10:43:34.254Z,99746.47
2023-04-25T10:46:02.497Z,99738.00
2023-04-25T10:48:31.720Z,99735.88
2023-04-25T10:51:12.164Z,99748.16
2023-04-25T10:53:41.590Z,99741.09
2023-04-25T10:56:14.552Z,99749.00
2023-04-25T10:58:46.452Z,99725.03
2023-04-25T11:01:15.561Z,99749.69
2023-04-25T11:03:46.284Z,99752.38
2023-04-25T11:06:24.491Z,99758.16
2023-04-25T11:08:54.345Z,99749.25
2023-04-25T11:11:22.563Z,99718.81
2023-04-25T11:13:51.589Z,99756.31
2023-04-25T11:16:27.519Z,99750.94
2023-04-25T11:18:59.149Z,99764.22
2023-04-25T11:21:28.823Z,99759.00
2023-04-25T11:23:58.653Z,99768.03
2023-04-25T11:26:27.325Z,99766.38
2023-04-25T11:28:59.538Z,99769.44
2023-04-25T11:31:27.840Z,99766.03
2023-04-25T11:33:56.795Z,99768.72
2023-04-25T11:36:25.054Z,99761.97
2023-04-25T11:38:53.883Z,99771.41
2023-04-25T11:41:23.540Z,99764.66
2023-04-25T11:43:53.153Z,99775.97
2023-04-25T11:46:21.948Z,99771.28
2023-04-25T11:48:51.889Z,99763.69
2023-04-25T11:51:20.277Z,99770.44
2023-04-25T11:53:48.311Z,99768.72
2023-04-25T11:56:16.313Z,99771.41
2023-04-25T11:58:59.082Z,99752.69
2023-04-25T12:01:35.555Z,99773.13
2023-04-25T12:04:14.137Z,99774.81
2023-04-25T12:06:43.620Z,99772.13
2023-04-25T12:09:14.270Z,99766.75
2023-04-25T12:11:46.806Z,99768.44
2023-04-25T12:14:25.210Z,99764.91
2023-04-25T12:16:53.609Z,99765.06
2023-04-25T12:19:22.411Z,99762.38
2023-04-25T12:21:58.037Z,99774.66
2023-04-25T12:24:29.270Z,99772.94
2023-04-25T12:27:02.451Z,99774.66
2023-04-25T12:29:42.047Z,99770.13
2023-04-25T12:32:17.022Z,99771.00
2023-04-25T12:34:45.249Z,99775.50
2023-04-25T12:37:13.582Z,99772.81
2023-04-25T12:39:41.648Z,99777.22
2023-04-25T12:42:12.531Z,99772.53
2023-04-25T12:44:42.488Z,99775.91
2023-04-25T12:47:11.099Z,99763.34
2023-04-25T12:49:39.317Z,99769.56
2023-04-25T12:52:07.370Z,99770.38
2023-04-25T12:54:35.316Z,99761.50
2023-04-25T12:57:04.165Z,99759.63
2023-04-25T12:59:32.294Z,99760.66
2023-04-25T13:02:01.789Z,99767.41
2023-04-25T13:04:30.135Z,99759.97
2023-04-25T13:06:58.416Z,99769.22
2023-04-25T13:09:26.447Z,99761.19
2023-04-25T13:11:56.311Z,99760.03
2023-04-25T13:14:26.401Z,99759.22
2023-04-25T13:16:55.340Z,99754.66
2023-04-25T13:19:25.086Z,99754.66
2023-04-25T13:21:53.190Z,99756.38
2023-04-25T13:24:21.496Z,99757.22
2023-04-25T13:26:49.836Z,99753.56
2023-04-25T13:29:17.903Z,99755.38
2023-04-25T13:31:46.025Z,99751.56
2023-04-25T13:34:14.174Z,99748.88
2023-04-25T13:36:43.576Z,99752.25
2023-04-25T13:39:13.263Z,99743.50
2023-04-25T13:41:41.829Z,99744.34
2023-04-25T13:44:09.880Z,99715.59
2023-04-25T13:49:12.898Z,99747.16
2023-04-25T13:51:43.288Z,99746.31
2023-04-25T13:54:11.607Z,99746.19
2023-04-25T13:56:39.650Z,99747.16
2023-04-25T13:59:07.985Z,99730.38
2023-04-25T14:01:36.762Z,99739.13
2023-04-25T14:04:06.204Z,99746.31
2023-04-25T14:06:34.614Z,99698.41
2023-04-25T14:09:05.406Z,99720.63
2023-04-25T14:11:33.663Z,99719.47
2023-04-25T14:14:01.719Z,99718.66
2023-04-25T14:16:29.974Z,99719.47
2023-04-25T14:18:58.887Z,99720.47
2023-04-25T14:21:27.944Z,99719.47
2023-04-25T14:23:55.922Z,99726.72
2023-04-25T14:26:25.492Z,99722.16
2023-04-25T14:28:53.883Z,99718.47
2023-04-25T14:31:22.105Z,99689.50
2023-04-25T14:33:50.304Z,99722.88
2023-04-25T14:36:18.837Z,99723.00
2023-04-25T14:38:46.834Z,99723.00
2023-04-25T14:41:14.930Z,99712.25
2023-04-25T14:43:44.226Z,99706.59
2023-04-25T14:46:13.033Z,99718.19
2023-04-25T14:48:41.281Z,99718.31
2023-04-25T14:51:09.357Z,99716.50
2023-04-25T14:53:37.813Z,99709.28
2023-04-25T14:56:06.602Z,99714.66
2023-04-25T14:58:34.713Z,99723.84
2023-04-25T15:01:04.221Z,99722.16
2023-04-25T15:03:33.048Z,99708.78
2023-04-25T15:06:01.197Z,99716.41
2023-04-25T15:08:29.284Z,99718.38
2023-04-25T15:10:57.436Z,99693.91
2023-04-25T15:13:25.896Z,99711.78
2023-04-25T15:15:55.246Z,99713.78
2023-04-25T15:18:25.165Z,99708.53
2023-04-25T15:20:54.114Z,99712.34
2023-04-25T15:23:23.368Z,99698.03
2023-04-25T15:25:52.515Z,99711.16
2023-04-25T15:28:22.331Z,99683.84
2023-04-25T15:30:51.447Z,99713.56
2023-04-25T15:33:19.487Z,99712.03
2023-04-25T15:35:48.998Z,99715.84
2023-04-25T15:38:17.089Z,99714.47
2023-04-25T15:40:45.241Z,99718.28
2023-04-25T15:43:16.108Z,99723.94
2023-04-25T15:45:45.490Z,99725.09
2023-04-25T15:48:13.786Z,99730.75
2023-04-25T15:50:42.473Z,99730.06
2023-04-25T15:53:12.377Z,99728.50
2023-04-25T15:55:40.555Z,99725.81
2023-04-25T15:58:10.071Z,99741.63
2023-04-25T16:00:40.452Z,99734.53
2023-04-25T16:03:09.595Z,99744.88
2023-04-25T16:05:38.612Z,99745.19
2023-04-25T16:08:06.704Z,99746.16
2023-04-25T16:10:36.752Z,99744.44
2023-04-25T16:13:04.758Z,99743.91
2023-04-25T16:15:35.158Z,99745.06
2023-04-25T16:18:03.883Z,99739.28
2023-04-25T16:20:32.002Z,99730.25
2023-04-25T16:23:00.377Z,99748.31
2023-04-25T16:25:28.414Z,99701.66
2023-04-25T16:27:57.905Z,99744.22
2023-04-25T16:30:26.351Z,99749.59
2023-04-25T16:32:57.149Z,99746.19
2023-04-25T16:35:25.741Z,99744.50
2023-04-25T16:37:53.680Z,99745.66
2023-04-25T16:40:21.721Z,99745.78
2023-04-25T16:42:49.839Z,99738.75
2023-04-25T16:45:20.335Z,99737.88
2023-04-25T16:47:48.441Z,99748.72
2023-04-25T16:50:17.183Z,99746.38
2023-04-25T16:52:45.190Z,99736.78
2023-04-25T16:55:13.140Z,99736.91
2023-04-25T16:57:41.279Z,99742.41
2023-04-25T17:00:10.752Z,99744.25
2023-04-25T17:02:40.463Z,99733.97
2023-04-25T17:05:09.169Z,99736.66
2023-04-25T17:07:37.155Z,99735.09
2023-04-25T17:10:05.991Z,99745.81
2023-04-25T17:12:34.367Z,99743.25
2023-04-25T17:15:02.421Z,99747.06
2023-04-25T17:17:30.697Z,99746.22
2023-04-25T17:20:00.256Z,99712.53
2023-04-25T17:22:28.300Z,99755.53
2023-04-25T17:24:56.321Z,99749.31
2023-04-25T17:27:24.326Z,99746.06
2023-04-25T17:29:52.310Z,99744.41
2023-04-25T17:32:20.197Z,99720.13
2023-04-25T17:34:48.203Z,99738.19
2023-04-25T17:37:18.139Z,99732.38
2023-04-25T17:39:46.854Z,99749.47
2023-04-25T17:42:15.071Z,99754.28
2023-04-25T17:44:43.689Z,99759.47
2023-04-25T17:47:11.815Z,99756.09
2023-04-25T17:49:39.868Z,99757.06
2023-04-25T17:52:07.995Z,99750.88
2023-04-25T17:54:37.351Z,99753.53
2023-04-25T17:57:05.608Z,99751.00
2023-04-25T17:59:33.781Z,99753.81
2023-04-25T18:02:02.059Z,99755.78
2023-04-25T18:04:30.150Z,99754.94
2023-04-25T18:06:58.201Z,99751.53
2023-04-25T18:09:26.505Z,99755.06
2023-04-25T18:11:56.436Z,99760.44
2023-04-25T18:14:25.052Z,99759.56
2023-04-25T18:16:54.803Z,99765.94
2023-04-25T18:19:23.396Z,99760.69
2023-04-25T18:21:54.294Z,99762.56
2023-04-25T18:24:24.514Z,99755.50
2023-04-25T18:26:54.272Z,99744.63
2023-04-25T18:29:32.967Z,99759.31
2023-04-25T18:32:02.148Z,99767.47
2023-04-25T18:34:30.234Z,99766.63
2023-04-25T18:36:58.185Z,99770.28
2023-04-25T18:39:26.414Z,99769.44
2023-04-25T18:42:00.036Z,99772.00
2023-04-25T18:44:33.721Z,99774.53
2023-04-25T18:47:02.043Z,99755.06
2023-04-25T18:49:29.906Z,99776.66
2023-04-25T18:51:58.707Z,99753.66
2023-04-25T18:54:26.780Z,99779.09
2023-04-25T18:56:55.725Z,99782.34
2023-04-25T18:59:26.358Z,99779.34
2023-04-25T19:01:56.036Z,99777.69
2023-04-25T19:04:24.192Z,99777.41
2023-04-25T19:06:52.356Z,99787.00
2023-04-25T19:09:20.302Z,99781.06
2023-04-25T19:11:48.467Z,99788.66
2023-04-25T19:14:16.538Z,99787.81
2023-04-25T19:16:44.548Z,99794.03
2023-04-25T19:19:14.137Z,99788.53
2023-04-25T19:21:42.692Z,99787.81
2023-04-25T19:24:11.387Z,99791.22
2023-04-25T19:26:39.427Z,99785.13
2023-04-25T19:29:09.314Z,99791.22
2023-04-25T19:31:38.711Z,99787.53
2023-04-25T19:34:07.694Z,99786.69
2023-04-25T19:36:39.103Z,99795.56
2023-04-25T19:39:07.295Z,99796.59
2023-04-25T19:41:38.409Z,99794.72
2023-04-25T19:44:08.442Z,99777.25
2023-04-25T19:46:37.787Z,99800.94
2023-04-25T19:49:07.705Z,99800.94
2023-04-25T19:51:37.795Z,99797.28
2023-04-25T19:54:06.209Z,99796.44
2023-04-25T19:56:34.320Z,99793.63
2023-04-25T19:59:02.418Z,99793.63
2023-04-25T20:01:30.705Z,99796.59
2023-04-25T20:03:58.719Z,99789.38
2023-04-25T20:06:27.291Z,99788.13
2023-04-25T20:08:57.031Z,99791.50
2023-04-25T20:11:28.557Z,99796.84
2023-04-25T20:13:57.407Z,99790.53
2023-04-25T20:16:25.626Z,99779.66
2023-04-25T20:18:54.560Z,99781.47
2023-04-25T20:21:23.563Z,99749.75
2023-04-25T20:23:51.910Z,99784.03
2023-04-25T20:26:22.756Z,99784.88
2023-04-25T20:28:51.574Z,99778.50
2023-04-25T20:31:20.147Z,99732.97
2023-04-25T20:33:48.976Z,99781.06
2023-04-25T20:36:16.901Z,99770.34
2023-04-25T20:38:44.924Z,99775.72
2023-04-25T20:41:13.439Z,99776.53
2023-04-25T20:43:43.029Z,99774.69
2023-04-25T20:46:11.430Z,99776.53
2023-04-25T20:48:39.416Z,99773.84
2023-04-25T20:51:08.812Z,99780.06
2023-04-25T20:53:36.839Z,99785.44
2023-04-25T20:56:06.324Z,99758.91
2023-04-25T20:58:34.428Z,99777.53
2023-04-25T21:01:06.881Z,99758.22
2023-04-25T21:03:35.671Z,99773.84
2023-04-25T21:06:03.834Z,99769.50
2023-04-25T21:08:32.056Z,99774.00
2023-04-25T21:11:00.102Z,99762.59
2023-04-25T21:13:29.103Z,99761.75
2023-04-25T21:15:58.318Z,99760.03
2023-04-25T21:18:27.800Z,99760.19
2023-04-25T21:20:55.830Z,99759.34
2023-04-25T21:23:23.784Z,99743.97
2023-04-25T21:25:53.479Z,99755.97
2023-04-25T21:28:21.830Z,99755.09
2023-04-25T21:30:49.863Z,99749.75
2023-04-25T21:33:18.407Z,99750.75
2023-04-25T21:35:47.863Z,99755.09
2023-04-25T21:38:16.261Z,99753.44
2023-04-25T21:40:44.373Z,99756.13
2023-04-25T21:43:12.517Z,99754.41
2023-04-25T21:46:05.717Z,99750.88
2023-04-25T21:48:28.503Z,99750.03
2023-04-25T21:50:57.961Z,99752.59
2023-04-25T21:53:26.740Z,99744.41
2023-04-25T21:55:54.725Z,99755.38
2023-04-25T21:58:22.702Z,99750.03
2023-04-25T22:00:50.949Z,99746.94
2023-04-25T22:03:20.276Z,99758.22
2023-04-25T22:05:48.655Z,99746.66
2023-04-25T22:08:18.051Z,99752.59
2023-04-25T22:10:46.326Z,99750.03
2023-04-25T22:13:15.288Z,99749.91
2023-04-25T22:15:43.368Z,99755.25
2023-04-25T22:18:12.912Z,99745.41
2023-04-25T22:20:41.059Z,99745.41
2023-04-25T22:23:09.579Z,99747.06
2023-04-25T22:25:38.970Z,99735.66
2023-04-25T22:28:07.104Z,99746.22
2023-04-25T22:30:37.178Z,99746.09
2023-04-25T22:33:05.160Z,99745.25
2023-04-25T22:35:33.188Z,99736.22
2023-04-25T22:38:01.649Z,99733.81
2023-04-25T22:40:29.626Z,99700.09
2023-04-25T22:42:59.064Z,99730.88
2023-04-25T22:45:27.346Z,99738.06
2023-04-25T22:47:55.450Z,99722.41
2023-04-25T22:50:23.632Z,99739.31
2023-04-25T22:52:51.616Z,99733.09
2023-04-25T22:55:19.599Z,99726.19
2023-04-25T22:57:47.636Z,99731.69
2023-04-25T23:00:20.286Z,99732.84
2023-04-25T23:02:49.775Z,99729.56
2023-04-25T23:05:18.432Z,99729.03
2023-04-25T23:07:46.439Z,99739.88
2023-04-25T23:10:14.889Z,99725.47
2023-04-25T23:12:43.061Z,99744.94
2023-04-25T23:15:13.198Z,99732.78
2023-04-25T23:17:43.487Z,99735.47
2023-04-25T23:20:12.419Z,99735.78
2023-04-25T23:22:40.748Z,99736.75
2023-04-25T23:25:10.458Z,99727.28
2023-04-25T23:27:38.536Z,99731.66
2023-04-25T23:30:08.730Z,99739.84
2023-04-25T23:32:37.081Z,99735.63
2023-04-25T23:35:07.881Z,99736.44
2023-04-25T23:37:37.181Z,99696.97
2023-04-25T23:40:10.051Z,99732.38
2023-04-25T23:42:38.655Z,99735.19
2023-04-25T23:45:08.333Z,99730.81
2023-04-25T23:47:37.558Z,99729.53
2023-04-25T23:50:08.457Z,99736.44
2023-04-25T23:52:36.696Z,99738.41
2023-04-25T23:55:05.421Z,99734.03
2023-04-25T23:57:33.659Z,99735.88
